sensor_id;sensor_type;location;lat;lon;timestamp;P1;durP1;ratioP1;P2;durP2;ratioP2
77152;SDS011;66124;51.146;17.072;2023-11-21T00:01:42;4.30;;;2.50;;
77152;SDS011;66124;51.146;17.072;2023-11-21T00:04:11;3.90;;;1.90;;
77152;SDS011;66124;51.146;17.072;2023-11-21T00:06:41;4.10;;;2.00;;
77152;SDS011;66124;51.146;17.072;2023-11-21T00:09:10;5.30;;;1.90;;
77152;SDS011;66124;51.146;17.072;2023-11-21T00:11:40;5.70;;;2.20;;
77152;SDS011;66124;51.146;17.072;2023-11-21T00:14:09;4.30;;;2.10;;
77152;SDS011;66124;51.146;17.072;2023-11-21T00:26:43;3.90;;;2.00;;
77152;SDS011;66124;51.146;17.072;2023-11-21T00:29:11;4.40;;;2.00;;
77152;SDS011;66124;51.146;17.072;2023-11-21T00:31:38;3.80;;;2.00;;
77152;SDS011;66124;51.146;17.072;2023-11-21T00:34:05;4.70;;;1.80;;
77152;SDS011;66124;51.146;17.072;2023-11-21T00:36:33;3.90;;;1.90;;
77152;SDS011;66124;51.146;17.072;2023-11-21T00:39:00;3.60;;;1.60;;
77152;SDS011;66124;51.146;17.072;2023-11-21T00:41:28;2.50;;;1.30;;
77152;SDS011;66124;51.146;17.072;2023-11-21T00:43:55;3.90;;;2.00;;
77152;SDS011;66124;51.146;17.072;2023-11-21T00:53:10;4.80;;;1.90;;
77152;SDS011;66124;51.146;17.072;2023-11-21T00:55:39;4.60;;;2.10;;
77152;SDS011;66124;51.146;17.072;2023-11-21T00:58:09;4.10;;;1.60;;
77152;SDS011;66124;51.146;17.072;2023-11-21T01:00:38;5.60;;;1.80;;
77152;SDS011;66124;51.146;17.072;2023-11-21T01:03:08;4.30;;;2.20;;
77152;SDS011;66124;51.146;17.072;2023-11-21T01:05:38;3.80;;;1.70;;
77152;SDS011;66124;51.146;17.072;2023-11-21T01:08:08;3.90;;;1.90;;
77152;SDS011;66124;51.146;17.072;2023-11-21T01:10:37;4.00;;;1.80;;
77152;SDS011;66124;51.146;17.072;2023-11-21T01:13:07;5.00;;;1.70;;
77152;SDS011;66124;51.146;17.072;2023-11-21T01:15:36;5.50;;;1.60;;
77152;SDS011;66124;51.146;17.072;2023-11-21T01:18:05;3.50;;;1.60;;
77152;SDS011;66124;51.146;17.072;2023-11-21T01:20:35;3.90;;;1.60;;
77152;SDS011;66124;51.146;17.072;2023-11-21T01:23:04;6.10;;;1.90;;
77152;SDS011;66124;51.146;17.072;2023-11-21T01:25:34;3.00;;;1.60;;
77152;SDS011;66124;51.146;17.072;2023-11-21T01:28:03;3.40;;;1.80;;
77152;SDS011;66124;51.146;17.072;2023-11-21T01:30:33;3.30;;;1.50;;
77152;SDS011;66124;51.146;17.072;2023-11-21T01:33:02;5.10;;;1.40;;
77152;SDS011;66124;51.146;17.072;2023-11-21T01:35:32;6.10;;;2.10;;
77152;SDS011;66124;51.146;17.072;2023-11-21T01:38:01;4.10;;;1.80;;
77152;SDS011;66124;51.146;17.072;2023-11-21T01:40:30;5.20;;;1.90;;
77152;SDS011;66124;51.146;17.072;2023-11-21T01:43:00;4.00;;;2.00;;
77152;SDS011;66124;51.146;17.072;2023-11-21T01:45:29;5.20;;;1.60;;
77152;SDS011;66124;51.146;17.072;2023-11-21T01:47:59;3.50;;;1.70;;
77152;SDS011;66124;51.146;17.072;2023-11-21T01:50:29;4.40;;;1.90;;
77152;SDS011;66124;51.146;17.072;2023-11-21T01:52:59;3.30;;;1.90;;
77152;SDS011;66124;51.146;17.072;2023-11-21T01:55:29;2.90;;;1.80;;
77152;SDS011;66124;51.146;17.072;2023-11-21T01:57:59;5.10;;;1.90;;
77152;SDS011;66124;51.146;17.072;2023-11-21T02:00:28;4.60;;;2.60;;
77152;SDS011;66124;51.146;17.072;2023-11-21T02:02:58;2.00;;;1.40;;
77152;SDS011;66124;51.146;17.072;2023-11-21T02:16:15;3.30;;;1.60;;
77152;SDS011;66124;51.146;17.072;2023-11-21T02:18:44;4.30;;;2.00;;
77152;SDS011;66124;51.146;17.072;2023-11-21T02:21:14;4.90;;;1.70;;
77152;SDS011;66124;51.146;17.072;2023-11-21T02:23:43;3.40;;;1.80;;
77152;SDS011;66124;51.146;17.072;2023-11-21T02:26:13;4.20;;;2.20;;
77152;SDS011;66124;51.146;17.072;2023-11-21T02:28:43;5.60;;;2.30;;
77152;SDS011;66124;51.146;17.072;2023-11-21T02:31:13;4.50;;;2.20;;
77152;SDS011;66124;51.146;17.072;2023-11-21T02:33:42;4.10;;;1.90;;
77152;SDS011;66124;51.146;17.072;2023-11-21T02:36:12;3.90;;;1.70;;
77152;SDS011;66124;51.146;17.072;2023-11-21T02:38:41;4.10;;;2.00;;
77152;SDS011;66124;51.146;17.072;2023-11-21T02:41:10;3.60;;;2.10;;
77152;SDS011;66124;51.146;17.072;2023-11-21T02:43:40;4.50;;;2.00;;
77152;SDS011;66124;51.146;17.072;2023-11-21T02:46:09;6.40;;;2.50;;
77152;SDS011;66124;51.146;17.072;2023-11-21T02:48:39;3.60;;;1.60;;
77152;SDS011;66124;51.146;17.072;2023-11-21T02:51:08;4.10;;;2.30;;
77152;SDS011;66124;51.146;17.072;2023-11-21T02:53:37;4.70;;;2.10;;
77152;SDS011;66124;51.146;17.072;2023-11-21T02:56:08;4.40;;;2.20;;
77152;SDS011;66124;51.146;17.072;2023-11-21T02:58:37;4.70;;;2.10;;
77152;SDS011;66124;51.146;17.072;2023-11-21T03:01:08;4.50;;;2.10;;
77152;SDS011;66124;51.146;17.072;2023-11-21T03:03:38;4.70;;;2.50;;
77152;SDS011;66124;51.146;17.072;2023-11-21T03:06:08;4.90;;;2.80;;
77152;SDS011;66124;51.146;17.072;2023-11-21T03:08:38;4.80;;;2.50;;
77152;SDS011;66124;51.146;17.072;2023-11-21T03:11:07;6.30;;;2.80;;
77152;SDS011;66124;51.146;17.072;2023-11-21T03:13:37;5.50;;;2.70;;
77152;SDS011;66124;51.146;17.072;2023-11-21T03:16:07;7.00;;;2.90;;
77152;SDS011;66124;51.146;17.072;2023-11-21T03:18:37;7.00;;;2.80;;
77152;SDS011;66124;51.146;17.072;2023-11-21T03:21:08;6.20;;;2.90;;
77152;SDS011;66124;51.146;17.072;2023-11-21T03:23:37;4.70;;;2.80;;
77152;SDS011;66124;51.146;17.072;2023-11-21T03:26:11;7.80;;;3.10;;
77152;SDS011;66124;51.146;17.072;2023-11-21T03:31:31;6.60;;;3.40;;
77152;SDS011;66124;51.146;17.072;2023-11-21T03:34:01;6.20;;;3.10;;
77152;SDS011;66124;51.146;17.072;2023-11-21T03:36:30;6.40;;;3.10;;
77152;SDS011;66124;51.146;17.072;2023-11-21T03:38:59;6.50;;;3.00;;
77152;SDS011;66124;51.146;17.072;2023-11-21T03:41:29;5.90;;;3.00;;
77152;SDS011;66124;51.146;17.072;2023-11-21T03:43:59;5.80;;;2.90;;
77152;SDS011;66124;51.146;17.072;2023-11-21T03:46:29;7.10;;;2.90;;
77152;SDS011;66124;51.146;17.072;2023-11-21T03:48:58;8.20;;;3.00;;
77152;SDS011;66124;51.146;17.072;2023-11-21T03:51:28;4.90;;;2.70;;
77152;SDS011;66124;51.146;17.072;2023-11-21T03:53:57;6.70;;;3.40;;
77152;SDS011;66124;51.146;17.072;2023-11-21T03:56:26;8.70;;;3.00;;
77152;SDS011;66124;51.146;17.072;2023-11-21T03:58:56;6.20;;;2.90;;
77152;SDS011;66124;51.146;17.072;2023-11-21T04:01:25;7.50;;;2.90;;
77152;SDS011;66124;51.146;17.072;2023-11-21T04:03:55;7.00;;;2.70;;
77152;SDS011;66124;51.146;17.072;2023-11-21T04:06:24;5.50;;;2.50;;
77152;SDS011;66124;51.146;17.072;2023-11-21T04:08:53;5.50;;;2.90;;
77152;SDS011;66124;51.146;17.072;2023-11-21T04:11:23;5.80;;;3.20;;
77152;SDS011;66124;51.146;17.072;2023-11-21T04:13:52;4.80;;;2.30;;
77152;SDS011;66124;51.146;17.072;2023-11-21T04:16:21;5.10;;;2.60;;
77152;SDS011;66124;51.146;17.072;2023-11-21T04:18:51;5.10;;;2.60;;
77152;SDS011;66124;51.146;17.072;2023-11-21T04:21:20;5.40;;;2.50;;
77152;SDS011;66124;51.146;17.072;2023-11-21T04:23:50;5.50;;;2.20;;
77152;SDS011;66124;51.146;17.072;2023-11-21T04:26:19;4.70;;;2.40;;
77152;SDS011;66124;51.146;17.072;2023-11-21T04:28:49;6.90;;;2.60;;
77152;SDS011;66124;51.146;17.072;2023-11-21T04:31:18;4.60;;;2.40;;
77152;SDS011;66124;51.146;17.072;2023-11-21T04:33:48;6.40;;;2.80;;
77152;SDS011;66124;51.146;17.072;2023-11-21T04:36:17;5.00;;;2.20;;
77152;SDS011;66124;51.146;17.072;2023-11-21T04:38:47;4.60;;;2.20;;
77152;SDS011;66124;51.146;17.072;2023-11-21T04:41:16;3.80;;;2.20;;
77152;SDS011;66124;51.146;17.072;2023-11-21T04:51:22;3.90;;;2.30;;
77152;SDS011;66124;51.146;17.072;2023-11-21T04:53:52;5.30;;;2.60;;
77152;SDS011;66124;51.146;17.072;2023-11-21T04:56:21;3.80;;;1.70;;
77152;SDS011;66124;51.146;17.072;2023-11-21T04:58:51;2.80;;;1.60;;
77152;SDS011;66124;51.146;17.072;2023-11-21T05:01:20;3.70;;;1.80;;
77152;SDS011;66124;51.146;17.072;2023-11-21T05:03:51;2.10;;;1.60;;
77152;SDS011;66124;51.146;17.072;2023-11-21T05:06:20;2.90;;;1.70;;
77152;SDS011;66124;51.146;17.072;2023-11-21T05:08:49;4.00;;;1.90;;
77152;SDS011;66124;51.146;17.072;2023-11-21T05:11:25;3.10;;;1.80;;
77152;SDS011;66124;51.146;17.072;2023-11-21T05:13:55;2.60;;;1.30;;
77152;SDS011;66124;51.146;17.072;2023-11-21T05:16:26;3.10;;;2.00;;
77152;SDS011;66124;51.146;17.072;2023-11-21T05:18:55;3.40;;;1.90;;
77152;SDS011;66124;51.146;17.072;2023-11-21T05:21:25;4.00;;;2.20;;
77152;SDS011;66124;51.146;17.072;2023-11-21T05:23:54;4.10;;;2.10;;
77152;SDS011;66124;51.146;17.072;2023-11-21T05:26:24;4.10;;;2.30;;
77152;SDS011;66124;51.146;17.072;2023-11-21T05:28:53;5.10;;;2.40;;
77152;SDS011;66124;51.146;17.072;2023-11-21T05:31:23;3.20;;;1.90;;
77152;SDS011;66124;51.146;17.072;2023-11-21T05:33:52;3.90;;;2.40;;
77152;SDS011;66124;51.146;17.072;2023-11-21T05:36:21;5.10;;;2.80;;
77152;SDS011;66124;51.146;17.072;2023-11-21T05:38:51;5.20;;;2.40;;
77152;SDS011;66124;51.146;17.072;2023-11-21T05:41:21;3.50;;;2.10;;
77152;SDS011;66124;51.146;17.072;2023-11-21T05:43:51;6.00;;;2.80;;
77152;SDS011;66124;51.146;17.072;2023-11-21T05:46:20;4.00;;;2.60;;
77152;SDS011;66124;51.146;17.072;2023-11-21T05:48:50;5.50;;;2.70;;
77152;SDS011;66124;51.146;17.072;2023-11-21T05:51:19;5.00;;;2.30;;
77152;SDS011;66124;51.146;17.072;2023-11-21T05:53:49;4.30;;;2.50;;
77152;SDS011;66124;51.146;17.072;2023-11-21T05:56:18;4.70;;;3.00;;
77152;SDS011;66124;51.146;17.072;2023-11-21T05:58:48;6.60;;;3.10;;
77152;SDS011;66124;51.146;17.072;2023-11-21T06:01:17;5.30;;;2.30;;
77152;SDS011;66124;51.146;17.072;2023-11-21T06:10:51;6.00;;;3.30;;
77152;SDS011;66124;51.146;17.072;2023-11-21T06:13:20;6.00;;;3.10;;
77152;SDS011;66124;51.146;17.072;2023-11-21T06:15:50;6.80;;;2.80;;
77152;SDS011;66124;51.146;17.072;2023-11-21T06:18:19;6.80;;;3.10;;
77152;SDS011;66124;51.146;17.072;2023-11-21T06:20:49;4.80;;;2.60;;
77152;SDS011;66124;51.146;17.072;2023-11-21T06:23:19;5.70;;;3.20;;
77152;SDS011;66124;51.146;17.072;2023-11-21T06:25:49;5.30;;;2.60;;
77152;SDS011;66124;51.146;17.072;2023-11-21T06:28:18;3.60;;;2.00;;
77152;SDS011;66124;51.146;17.072;2023-11-21T06:30:48;4.40;;;2.80;;
77152;SDS011;66124;51.146;17.072;2023-11-21T06:33:18;3.40;;;2.30;;
77152;SDS011;66124;51.146;17.072;2023-11-21T06:35:47;5.40;;;2.80;;
77152;SDS011;66124;51.146;17.072;2023-11-21T06:38:16;5.50;;;3.10;;
77152;SDS011;66124;51.146;17.072;2023-11-21T06:40:46;5.70;;;3.20;;
77152;SDS011;66124;51.146;17.072;2023-11-21T06:43:15;5.60;;;3.20;;
77152;SDS011;66124;51.146;17.072;2023-11-21T06:45:45;5.00;;;3.10;;
77152;SDS011;66124;51.146;17.072;2023-11-21T06:48:14;6.50;;;2.90;;
77152;SDS011;66124;51.146;17.072;2023-11-21T06:50:44;6.50;;;3.10;;
77152;SDS011;66124;51.146;17.072;2023-11-21T06:53:13;6.90;;;3.20;;
77152;SDS011;66124;51.146;17.072;2023-11-21T06:55:42;4.90;;;2.90;;
77152;SDS011;66124;51.146;17.072;2023-11-21T06:58:12;6.00;;;3.10;;
77152;SDS011;66124;51.146;17.072;2023-11-21T07:00:41;4.70;;;2.40;;
77152;SDS011;66124;51.146;17.072;2023-11-21T07:03:11;6.80;;;3.20;;
77152;SDS011;66124;51.146;17.072;2023-11-21T07:05:41;5.30;;;3.00;;
77152;SDS011;66124;51.146;17.072;2023-11-21T07:08:10;6.00;;;2.80;;
77152;SDS011;66124;51.146;17.072;2023-11-21T07:10:40;5.50;;;3.00;;
77152;SDS011;66124;51.146;17.072;2023-11-21T07:13:09;6.90;;;3.10;;
77152;SDS011;66124;51.146;17.072;2023-11-21T07:15:39;6.40;;;3.20;;
77152;SDS011;66124;51.146;17.072;2023-11-21T07:18:09;5.90;;;3.00;;
77152;SDS011;66124;51.146;17.072;2023-11-21T07:20:38;5.80;;;3.50;;
77152;SDS011;66124;51.146;17.072;2023-11-21T07:23:08;4.80;;;6.20;;
77152;SDS011;66124;51.146;17.072;2023-11-21T07:31:04;6.20;;;3.80;;
77152;SDS011;66124;51.146;17.072;2023-11-21T07:33:34;10.30;;;3.30;;
77152;SDS011;66124;51.146;17.072;2023-11-21T07:36:06;6.30;;;2.80;;
77152;SDS011;66124;51.146;17.072;2023-11-21T07:38:36;9.30;;;3.80;;
77152;SDS011;66124;51.146;17.072;2023-11-21T07:41:06;5.10;;;3.30;;
77152;SDS011;66124;51.146;17.072;2023-11-21T07:43:36;5.80;;;3.40;;
77152;SDS011;66124;51.146;17.072;2023-11-21T07:46:05;6.40;;;4.00;;
77152;SDS011;66124;51.146;17.072;2023-11-21T07:48:35;7.30;;;3.80;;
77152;SDS011;66124;51.146;17.072;2023-11-21T07:51:04;6.50;;;3.70;;
77152;SDS011;66124;51.146;17.072;2023-11-21T07:53:34;6.60;;;3.40;;
77152;SDS011;66124;51.146;17.072;2023-11-21T07:56:05;6.10;;;3.30;;
77152;SDS011;66124;51.146;17.072;2023-11-21T07:58:36;7.10;;;4.00;;
77152;SDS011;66124;51.146;17.072;2023-11-21T08:01:06;6.40;;;3.40;;
77152;SDS011;66124;51.146;17.072;2023-11-21T08:03:35;7.00;;;3.50;;
77152;SDS011;66124;51.146;17.072;2023-11-21T08:06:06;8.00;;;3.80;;
77152;SDS011;66124;51.146;17.072;2023-11-21T08:08:36;6.40;;;3.50;;
77152;SDS011;66124;51.146;17.072;2023-11-21T08:11:05;9.00;;;3.80;;
77152;SDS011;66124;51.146;17.072;2023-11-21T08:13:35;9.70;;;4.50;;
77152;SDS011;66124;51.146;17.072;2023-11-21T08:16:06;10.40;;;4.10;;
77152;SDS011;66124;51.146;17.072;2023-11-21T08:18:36;6.30;;;3.90;;
77152;SDS011;66124;51.146;17.072;2023-11-21T08:21:05;6.10;;;3.60;;
77152;SDS011;66124;51.146;17.072;2023-11-21T08:23:35;7.50;;;4.00;;
77152;SDS011;66124;51.146;17.072;2023-11-21T08:26:05;7.40;;;3.90;;
77152;SDS011;66124;51.146;17.072;2023-11-21T08:28:34;5.90;;;3.80;;
77152;SDS011;66124;51.146;17.072;2023-11-21T08:31:04;8.30;;;4.00;;
77152;SDS011;66124;51.146;17.072;2023-11-21T08:33:33;7.40;;;4.30;;
77152;SDS011;66124;51.146;17.072;2023-11-21T08:36:08;8.00;;;3.50;;
77152;SDS011;66124;51.146;17.072;2023-11-21T08:38:38;6.40;;;3.50;;
77152;SDS011;66124;51.146;17.072;2023-11-21T08:46:52;6.80;;;3.20;;
77152;SDS011;66124;51.146;17.072;2023-11-21T08:49:21;6.50;;;3.10;;
77152;SDS011;66124;51.146;17.072;2023-11-21T08:51:50;4.40;;;2.90;;
77152;SDS011;66124;51.146;17.072;2023-11-21T08:54:20;6.70;;;3.90;;
77152;SDS011;66124;51.146;17.072;2023-11-21T08:56:49;6.50;;;3.60;;
77152;SDS011;66124;51.146;17.072;2023-11-21T08:59:20;7.60;;;3.90;;
77152;SDS011;66124;51.146;17.072;2023-11-21T09:01:49;6.10;;;3.60;;
77152;SDS011;66124;51.146;17.072;2023-11-21T09:04:19;6.50;;;4.10;;
77152;SDS011;66124;51.146;17.072;2023-11-21T09:06:48;6.50;;;3.60;;
77152;SDS011;66124;51.146;17.072;2023-11-21T09:09:18;6.40;;;3.90;;
77152;SDS011;66124;51.146;17.072;2023-11-21T09:11:47;6.70;;;3.10;;
77152;SDS011;66124;51.146;17.072;2023-11-21T09:14:17;5.40;;;3.60;;
77152;SDS011;66124;51.146;17.072;2023-11-21T09:16:46;8.60;;;4.00;;
77152;SDS011;66124;51.146;17.072;2023-11-21T09:19:16;7.60;;;4.10;;
77152;SDS011;66124;51.146;17.072;2023-11-21T09:21:45;9.20;;;3.90;;
77152;SDS011;66124;51.146;17.072;2023-11-21T09:24:14;8.10;;;3.50;;
77152;SDS011;66124;51.146;17.072;2023-11-21T09:26:44;6.40;;;3.20;;
77152;SDS011;66124;51.146;17.072;2023-11-21T09:29:13;8.90;;;3.50;;
77152;SDS011;66124;51.146;17.072;2023-11-21T09:31:43;7.00;;;3.30;;
77152;SDS011;66124;51.146;17.072;2023-11-21T09:34:12;4.50;;;2.50;;
77152;SDS011;66124;51.146;17.072;2023-11-21T09:36:43;4.40;;;2.80;;
77152;SDS011;66124;51.146;17.072;2023-11-21T09:39:13;5.40;;;3.30;;
77152;SDS011;66124;51.146;17.072;2023-11-21T09:41:44;6.10;;;3.10;;
77152;SDS011;66124;51.146;17.072;2023-11-21T09:44:18;5.20;;;2.80;;
77152;SDS011;66124;51.146;17.072;2023-11-21T09:46:57;5.80;;;3.20;;
77152;SDS011;66124;51.146;17.072;2023-11-21T09:49:29;5.30;;;2.60;;
77152;SDS011;66124;51.146;17.072;2023-11-21T09:52:02;4.90;;;2.50;;
77152;SDS011;66124;51.146;17.072;2023-11-21T09:54:36;3.00;;;1.90;;
77152;SDS011;66124;51.146;17.072;2023-11-21T10:02:52;4.90;;;2.70;;
77152;SDS011;66124;51.146;17.072;2023-11-21T10:05:21;5.40;;;2.50;;
77152;SDS011;66124;51.146;17.072;2023-11-21T10:07:51;7.20;;;3.00;;
77152;SDS011;66124;51.146;17.072;2023-11-21T10:10:23;3.90;;;2.20;;
77152;SDS011;66124;51.146;17.072;2023-11-21T10:12:56;4.90;;;2.90;;
77152;SDS011;66124;51.146;17.072;2023-11-21T10:15:28;4.10;;;2.80;;
77152;SDS011;66124;51.146;17.072;2023-11-21T10:17:58;4.60;;;2.30;;
77152;SDS011;66124;51.146;17.072;2023-11-21T10:20:29;5.10;;;2.70;;
77152;SDS011;66124;51.146;17.072;2023-11-21T10:23:00;9.70;;;6.00;;
77152;SDS011;66124;51.146;17.072;2023-11-21T10:25:29;10.70;;;6.20;;
77152;SDS011;66124;51.146;17.072;2023-11-21T10:27:59;11.10;;;6.80;;
77152;SDS011;66124;51.146;17.072;2023-11-21T10:30:32;11.60;;;7.10;;
77152;SDS011;66124;51.146;17.072;2023-11-21T10:33:02;11.40;;;6.40;;
77152;SDS011;66124;51.146;17.072;2023-11-21T10:35:45;11.20;;;6.70;;
77152;SDS011;66124;51.146;17.072;2023-11-21T10:38:15;14.90;;;7.80;;
77152;SDS011;66124;51.146;17.072;2023-11-21T10:40:45;12.60;;;6.50;;
77152;SDS011;66124;51.146;17.072;2023-11-21T10:43:14;13.60;;;7.40;;
77152;SDS011;66124;51.146;17.072;2023-11-21T10:45:44;13.90;;;7.70;;
77152;SDS011;66124;51.146;17.072;2023-11-21T10:48:14;12.90;;;7.40;;
77152;SDS011;66124;51.146;17.072;2023-11-21T10:50:45;14.10;;;7.60;;
77152;SDS011;66124;51.146;17.072;2023-11-21T10:53:15;15.30;;;7.80;;
77152;SDS011;66124;51.146;17.072;2023-11-21T10:55:44;13.30;;;7.20;;
77152;SDS011;66124;51.146;17.072;2023-11-21T10:58:14;12.00;;;6.70;;
77152;SDS011;66124;51.146;17.072;2023-11-21T11:00:45;13.50;;;7.40;;
77152;SDS011;66124;51.146;17.072;2023-11-21T11:03:14;15.00;;;8.20;;
77152;SDS011;66124;51.146;17.072;2023-11-21T11:05:44;13.00;;;7.40;;
77152;SDS011;66124;51.146;17.072;2023-11-21T11:08:14;11.50;;;7.00;;
77152;SDS011;66124;51.146;17.072;2023-11-21T11:10:46;8.40;;;4.90;;
77152;SDS011;66124;51.146;17.072;2023-11-21T11:21:27;15.20;;;7.90;;
77152;SDS011;66124;51.146;17.072;2023-11-21T11:24:13;14.20;;;7.90;;
77152;SDS011;66124;51.146;17.072;2023-11-21T11:26:54;13.60;;;7.40;;
77152;SDS011;66124;51.146;17.072;2023-11-21T11:29:32;14.80;;;7.10;;
77152;SDS011;66124;51.146;17.072;2023-11-21T11:32:12;14.30;;;7.20;;
77152;SDS011;66124;51.146;17.072;2023-11-21T11:34:51;15.80;;;9.00;;
77152;SDS011;66124;51.146;17.072;2023-11-21T11:37:25;13.00;;;7.30;;
77152;SDS011;66124;51.146;17.072;2023-11-21T11:39:56;14.00;;;7.40;;
77152;SDS011;66124;51.146;17.072;2023-11-21T11:42:27;13.90;;;7.20;;
77152;SDS011;66124;51.146;17.072;2023-11-21T11:44:56;12.00;;;6.90;;
77152;SDS011;66124;51.146;17.072;2023-11-21T11:47:27;13.90;;;6.90;;
77152;SDS011;66124;51.146;17.072;2023-11-21T11:52:36;10.40;;;5.90;;
77152;SDS011;66124;51.146;17.072;2023-11-21T11:55:09;12.20;;;6.50;;
77152;SDS011;66124;51.146;17.072;2023-11-21T11:57:40;10.40;;;6.20;;
77152;SDS011;66124;51.146;17.072;2023-11-21T12:00:14;13.00;;;7.10;;
77152;SDS011;66124;51.146;17.072;2023-11-21T12:02:45;10.70;;;6.20;;
77152;SDS011;66124;51.146;17.072;2023-11-21T12:05:16;10.40;;;6.10;;
77152;SDS011;66124;51.146;17.072;2023-11-21T12:07:47;9.90;;;5.60;;
77152;SDS011;66124;51.146;17.072;2023-11-21T12:10:19;11.10;;;6.10;;
77152;SDS011;66124;51.146;17.072;2023-11-21T12:12:50;9.70;;;4.80;;
77152;SDS011;66124;51.146;17.072;2023-11-21T12:15:21;10.10;;;5.50;;
77152;SDS011;66124;51.146;17.072;2023-11-21T12:17:51;9.30;;;5.50;;
77152;SDS011;66124;51.146;17.072;2023-11-21T12:20:22;9.20;;;4.70;;
77152;SDS011;66124;51.146;17.072;2023-11-21T12:22:52;7.70;;;4.70;;
77152;SDS011;66124;51.146;17.072;2023-11-21T12:25:25;7.90;;;4.20;;
77152;SDS011;66124;51.146;17.072;2023-11-21T12:27:55;9.10;;;5.20;;
77152;SDS011;66124;51.146;17.072;2023-11-21T12:30:26;8.00;;;4.00;;
77152;SDS011;66124;51.146;17.072;2023-11-21T12:32:56;0.20;;;0.20;;
77152;SDS011;66124;51.146;17.072;2023-11-21T12:38:21;7.00;;;4.60;;
77152;SDS011;66124;51.146;17.072;2023-11-21T12:40:51;9.20;;;4.70;;
77152;SDS011;66124;51.146;17.072;2023-11-21T12:43:20;7.70;;;4.30;;
77152;SDS011;66124;51.146;17.072;2023-11-21T12:45:50;6.20;;;4.00;;
77152;SDS011;66124;51.146;17.072;2023-11-21T12:48:32;7.80;;;4.20;;
77152;SDS011;66124;51.146;17.072;2023-11-21T12:51:01;7.30;;;4.40;;
77152;SDS011;66124;51.146;17.072;2023-11-21T12:53:32;7.40;;;4.40;;
77152;SDS011;66124;51.146;17.072;2023-11-21T12:56:02;7.80;;;4.10;;
77152;SDS011;66124;51.146;17.072;2023-11-21T12:58:33;9.70;;;4.60;;
77152;SDS011;66124;51.146;17.072;2023-11-21T13:01:03;7.20;;;4.70;;
77152;SDS011;66124;51.146;17.072;2023-11-21T13:03:33;7.50;;;4.40;;
77152;SDS011;66124;51.146;17.072;2023-11-21T13:06:05;7.50;;;4.50;;
77152;SDS011;66124;51.146;17.072;2023-11-21T13:08:36;7.40;;;5.00;;
77152;SDS011;66124;51.146;17.072;2023-11-21T13:11:06;6.50;;;4.00;;
77152;SDS011;66124;51.146;17.072;2023-11-21T13:13:35;7.40;;;4.10;;
77152;SDS011;66124;51.146;17.072;2023-11-21T13:16:08;6.10;;;3.30;;
77152;SDS011;66124;51.146;17.072;2023-11-21T13:18:37;6.80;;;3.40;;
77152;SDS011;66124;51.146;17.072;2023-11-21T13:21:08;6.30;;;3.20;;
77152;SDS011;66124;51.146;17.072;2023-11-21T13:23:37;5.30;;;3.30;;
77152;SDS011;66124;51.146;17.072;2023-11-21T13:26:08;5.10;;;3.40;;
77152;SDS011;66124;51.146;17.072;2023-11-21T13:28:38;5.90;;;3.40;;
77152;SDS011;66124;51.146;17.072;2023-11-21T13:31:07;5.40;;;3.30;;
77152;SDS011;66124;51.146;17.072;2023-11-21T13:33:37;6.50;;;3.50;;
77152;SDS011;66124;51.146;17.072;2023-11-21T13:36:07;6.10;;;2.90;;
77152;SDS011;66124;51.146;17.072;2023-11-21T13:38:37;5.70;;;3.60;;
77152;SDS011;66124;51.146;17.072;2023-11-21T13:41:07;4.20;;;2.80;;
77152;SDS011;66124;51.146;17.072;2023-11-21T13:43:36;6.30;;;3.30;;
77152;SDS011;66124;51.146;17.072;2023-11-21T13:46:06;4.90;;;3.10;;
77152;SDS011;66124;51.146;17.072;2023-11-21T13:48:36;5.70;;;3.50;;
77152;SDS011;66124;51.146;17.072;2023-11-21T13:58:42;6.20;;;4.20;;
77152;SDS011;66124;51.146;17.072;2023-11-21T14:01:12;7.00;;;4.40;;
77152;SDS011;66124;51.146;17.072;2023-11-21T14:03:41;8.30;;;5.00;;
77152;SDS011;66124;51.146;17.072;2023-11-21T14:06:11;5.40;;;3.60;;
77152;SDS011;66124;51.146;17.072;2023-11-21T14:08:41;7.10;;;3.60;;
77152;SDS011;66124;51.146;17.072;2023-11-21T14:11:11;7.40;;;4.30;;
77152;SDS011;66124;51.146;17.072;2023-11-21T14:13:40;6.30;;;3.90;;
77152;SDS011;66124;51.146;17.072;2023-11-21T14:16:09;6.30;;;4.50;;
77152;SDS011;66124;51.146;17.072;2023-11-21T14:18:39;6.60;;;4.50;;
77152;SDS011;66124;51.146;17.072;2023-11-21T14:21:08;6.00;;;3.90;;
77152;SDS011;66124;51.146;17.072;2023-11-21T14:23:38;7.80;;;4.50;;
77152;SDS011;66124;51.146;17.072;2023-11-21T14:26:07;4.90;;;3.40;;
77152;SDS011;66124;51.146;17.072;2023-11-21T14:28:36;5.50;;;3.00;;
77152;SDS011;66124;51.146;17.072;2023-11-21T14:31:06;4.10;;;2.70;;
77152;SDS011;66124;51.146;17.072;2023-11-21T14:33:36;5.50;;;3.50;;
77152;SDS011;66124;51.146;17.072;2023-11-21T14:36:06;5.00;;;4.00;;
77152;SDS011;66124;51.146;17.072;2023-11-21T14:38:36;6.60;;;4.10;;
77152;SDS011;66124;51.146;17.072;2023-11-21T14:41:06;6.40;;;4.10;;
77152;SDS011;66124;51.146;17.072;2023-11-21T14:43:36;6.40;;;4.70;;
77152;SDS011;66124;51.146;17.072;2023-11-21T14:46:06;7.90;;;4.90;;
77152;SDS011;66124;51.146;17.072;2023-11-21T14:48:35;7.70;;;5.20;;
77152;SDS011;66124;51.146;17.072;2023-11-21T14:51:05;8.10;;;4.80;;
77152;SDS011;66124;51.146;17.072;2023-11-21T14:53:35;8.30;;;4.90;;
77152;SDS011;66124;51.146;17.072;2023-11-21T14:56:05;7.80;;;5.00;;
77152;SDS011;66124;51.146;17.072;2023-11-21T14:58:36;7.00;;;4.20;;
77152;SDS011;66124;51.146;17.072;2023-11-21T15:01:06;7.50;;;5.10;;
77152;SDS011;66124;51.146;17.072;2023-11-21T15:03:35;8.20;;;5.20;;
77152;SDS011;66124;51.146;17.072;2023-11-21T15:06:06;7.20;;;4.80;;
77152;SDS011;66124;51.146;17.072;2023-11-21T15:08:37;8.50;;;4.10;;
77152;SDS011;66124;51.146;17.072;2023-11-21T15:18:45;7.90;;;5.20;;
77152;SDS011;66124;51.146;17.072;2023-11-21T15:21:14;6.80;;;4.10;;
77152;SDS011;66124;51.146;17.072;2023-11-21T15:23:44;8.70;;;4.70;;
77152;SDS011;66124;51.146;17.072;2023-11-21T15:26:13;7.30;;;4.60;;
77152;SDS011;66124;51.146;17.072;2023-11-21T15:28:43;7.00;;;4.20;;
77152;SDS011;66124;51.146;17.072;2023-11-21T15:31:13;7.30;;;4.00;;
77152;SDS011;66124;51.146;17.072;2023-11-21T15:33:43;7.30;;;4.90;;
77152;SDS011;66124;51.146;17.072;2023-11-21T15:36:12;7.40;;;4.80;;
77152;SDS011;66124;51.146;17.072;2023-11-21T15:38:42;7.10;;;4.50;;
77152;SDS011;66124;51.146;17.072;2023-11-21T15:41:11;6.40;;;4.00;;
77152;SDS011;66124;51.146;17.072;2023-11-21T15:43:41;9.40;;;5.00;;
77152;SDS011;66124;51.146;17.072;2023-11-21T15:46:10;9.00;;;5.00;;
77152;SDS011;66124;51.146;17.072;2023-11-21T15:48:40;9.80;;;5.40;;
77152;SDS011;66124;51.146;17.072;2023-11-21T15:51:09;7.80;;;4.50;;
77152;SDS011;66124;51.146;17.072;2023-11-21T15:53:38;7.00;;;4.50;;
77152;SDS011;66124;51.146;17.072;2023-11-21T15:56:09;6.20;;;3.00;;
77152;SDS011;66124;51.146;17.072;2023-11-21T15:58:39;6.30;;;3.70;;
77152;SDS011;66124;51.146;17.072;2023-11-21T16:01:09;6.40;;;4.10;;
77152;SDS011;66124;51.146;17.072;2023-11-21T16:03:39;6.10;;;3.90;;
77152;SDS011;66124;51.146;17.072;2023-11-21T16:06:08;7.80;;;4.80;;
77152;SDS011;66124;51.146;17.072;2023-11-21T16:08:38;10.10;;;5.60;;
77152;SDS011;66124;51.146;17.072;2023-11-21T16:11:08;5.90;;;4.00;;
77152;SDS011;66124;51.146;17.072;2023-11-21T16:13:37;7.50;;;4.50;;
77152;SDS011;66124;51.146;17.072;2023-11-21T16:16:08;6.20;;;4.00;;
77152;SDS011;66124;51.146;17.072;2023-11-21T16:18:37;6.80;;;4.00;;
77152;SDS011;66124;51.146;17.072;2023-11-21T16:21:07;6.50;;;3.50;;